Time;durP1;ratioP1;P1;durP2;ratioP2;P2;SDS_P1;SDS_P2;PMS_P1;PMS_P2;Temp;Humidity;BMP_temperature;BMP_pressure;BME280_temperature;BME280_humidity;BME280_pressure;Samples;Min_cycle;Max_cycle;Signal;HPM_P1;HPM_P2
2023/03/06 18:14:40;;;;;;;38.42;16.45;;;3.50;93.20;;;;;;7601359;19;21496;-76
2023/03/06 18:18:26;;;;;;;33.33;16.38;;;3.80;94.80;;;;;;7566204;19;20378;-77
2023/03/06 18:21:06;;;;;;;39.13;17.80;;;3.50;99.40;;;;;;7595725;19;20010;-77
2023/03/06 18:23:39;;;;;;;34.63;15.65;;;3.50;96.00;;;;;;7632068;19;20022;-75
2023/03/06 18:26:18;;;;;;;39.08;16.67;;;3.50;96.20;;;;;;7622146;19;20130;-75
2023/03/06 18:29:03;;;;;;;40.08;16.25;;;3.50;95.40;;;;;;7620616;19;20022;-77
2023/03/06 18:31:37;;;;;;;36.15;15.13;;;3.50;93.80;;;;;;7603281;19;20025;-74
2023/03/06 18:34:12;;;;;;;34.28;15.98;;;3.60;94.00;;;;;;7586482;19;20029;-74
2023/03/06 18:36:46;;;;;;;34.83;16.10;;;3.60;93.40;;;;;;7600080;19;20614;-74
2023/03/06 18:39:20;;;;;;;31.55;15.05;;;3.60;93.70;;;;;;7618095;19;20082;-73
2023/03/06 18:41:52;;;;;;;34.00;17.35;;;3.70;92.80;;;;;;7627383;19;20022;-76
2023/03/06 18:44:24;;;;;;;31.85;15.10;;;3.70;92.60;;;;;;7602153;19;20014;-75
2023/03/06 18:46:56;;;;;;;38.05;15.82;;;3.70;92.50;;;;;;7599386;19;20022;-74
2023/03/06 18:49:29;;;;;;;31.80;15.27;;;3.70;92.20;;;;;;7605833;19;20069;-74
2023/03/06 18:52:01;;;;;;;37.33;15.57;;;3.70;91.70;;;;;;7581294;19;20003;-74
2023/03/06 18:54:34;;;;;;;28.13;14.35;;;3.70;91.70;;;;;;7577886;19;20026;-75
2023/03/06 18:57:06;;;;;;;34.15;15.20;;;3.70;92.00;;;;;;7592744;19;20046;-77
2023/03/06 18:59:38;;;;;;;31.95;15.10;;;3.70;91.70;;;;;;7550820;19;24296;-77
2023/03/06 19:02:11;;;;;;;29.80;13.90;;;3.80;91.70;;;;;;7582380;19;20689;-76
2023/03/06 19:04:44;;;;;;;;;;;3.80;91.30;;;;;;7609945;19;20031;-74
2023/03/06 19:07:16;;;;;;;35.70;14.27;;;3.70;90.40;;;;;;7614807;19;20366;-75
2023/03/06 19:09:48;;;;;;;28.10;13.30;;;3.80;91.50;;;;;;7612452;19;20018;-76
2023/03/06 19:12:20;;;;;;;33.58;13.73;;;3.80;91.40;;;;;;7614657;19;20098;-75
2023/03/06 19:14:52;;;;;;;32.65;13.88;;;3.80;91.30;;;;;;7598102;19;20085;-77
2023/03/06 19:17:25;;;;;;;30.48;13.73;;;3.80;91.10;;;;;;7597639;19;20545;-75
2023/03/06 19:19:57;;;;;;;23.90;11.35;;;3.80;90.80;;;;;;7576626;19;20094;-74
2023/03/06 19:22:30;;;;;;;30.20;13.60;;;3.80;90.40;;;;;;7598899;19;20652;-74
2023/03/06 19:25:02;;;;;;;29.92;12.75;;;3.80;90.20;;;;;;7629555;19;20025;-74
2023/03/06 19:27:37;;;;;;;28.30;12.35;;;3.90;90.10;;;;;;7558779;19;21250;-74
2023/03/06 19:30:10;;;;;;;;;;;3.80;90.20;;;;;;7554615;19;20094;-76
2023/03/06 19:32:45;;;;;;;34.05;14.68;;;3.80;88.30;;;;;;7593042;19;20490;-76
2023/03/06 19:35:19;;;;;;;31.13;12.75;;;3.80;89.60;;;;;;7587438;19;20022;-76
2023/03/06 19:37:51;;;;;;;;;;;3.80;89.90;;;;;;7601509;19;20657;-76
2023/03/06 19:40:23;;;;;;;28.25;13.02;;;3.80;87.70;;;;;;7585397;19;20639;-75
2023/03/06 19:42:55;;;;;;;27.67;13.35;;;3.80;89.20;;;;;;7601877;19;20019;-75
2023/03/06 19:45:28;;;;;;;30.08;14.80;;;3.80;89.40;;;;;;7590137;19;20018;-75
2023/03/06 19:48:00;;;;;;;32.05;14.23;;;3.80;89.40;;;;;;7591124;19;20492;-76
2023/03/06 19:50:33;;;;;;;31.08;13.85;;;3.80;89.50;;;;;;7543463;19;20050;-75
2023/03/06 19:53:06;;;;;;;30.27;14.52;;;3.80;89.50;;;;;;7595244;19;20023;-77
2023/03/06 19:55:39;;;;;;;30.00;13.85;;;3.80;88.60;;;;;;7565768;19;20018;-76
2023/03/06 19:58:11;;;;;;;27.75;13.63;;;3.80;88.90;;;;;;7586976;19;20019;-75
2023/03/06 20:00:43;;;;;;;31.55;14.45;;;3.80;89.00;;;;;;7581286;19;20032;-75
2023/03/06 20:03:16;;;;;;;33.03;15.00;;;3.80;88.80;;;;;;7569800;19;20014;-74
2023/03/06 20:05:48;;;;;;;32.45;15.98;;;3.80;88.80;;;;;;7530296;19;20630;-76
2023/03/06 20:08:20;;;;;;;33.28;16.20;;;3.80;89.10;;;;;;7557288;19;20022;-76
2023/03/06 20:10:53;;;;;;;31.85;14.50;;;3.80;89.30;;;;;;7593077;19;21426;-76
2023/03/06 20:13:25;;;;;;;34.70;15.98;;;3.80;88.70;;;;;;7594326;19;20372;-75
2023/03/06 20:16:01;;;;;;;29.65;14.45;;;3.70;88.90;;;;;;7601950;19;20094;-76
2023/03/06 20:18:33;;;;;;;30.48;14.05;;;3.70;89.10;;;;;;7579063;19;20489;-75
2023/03/06 20:21:06;;;;;;;28.42;13.70;;;3.70;89.50;;;;;;7575939;19;20017;-76
2023/03/06 20:23:38;;;;;;;33.15;15.30;;;3.70;89.10;;;;;;7579783;19;20022;-74
2023/03/06 20:26:13;;;;;;;35.27;15.70;;;3.70;89.40;;;;;;7597919;19;20025;-74
2023/03/06 20:28:45;;;;;;;32.92;15.43;;;3.70;89.90;;;;;;7596656;19;20864;-73
2023/03/06 20:31:21;;;;;;;38.15;16.75;;;3.70;90.00;;;;;;7563087;19;20021;-76
2023/03/06 20:33:56;;;;;;;34.45;14.95;;;3.60;90.10;;;;;;7555066;19;20022;-75
2023/03/06 20:36:31;;;;;;;39.70;16.08;;;3.70;90.10;;;;;;7547651;19;20010;-76
2023/03/06 20:39:06;;;;;;;32.17;14.93;;;3.70;90.20;;;;;;7571898;19;20371;-74
2023/03/06 20:41:41;;;;;;;33.30;15.98;;;3.70;90.10;;;;;;7585209;19;20010;-74
2023/03/06 20:44:16;;;;;;;34.95;15.32;;;3.60;90.20;;;;;;7579436;19;20018;-75
2023/03/06 20:46:50;;;;;;;33.65;15.18;;;3.60;90.30;;;;;;7604190;19;24048;-73
2023/03/06 20:49:22;;;;;;;30.20;13.85;;;3.60;90.30;;;;;;7591537;19;20044;-73
2023/03/06 20:51:57;;;;;;;31.17;14.38;;;3.60;90.40;;;;;;7601247;19;20062;-76
2023/03/06 20:54:30;;;;;;;34.10;14.93;;;3.60;90.50;;;;;;7605529;19;20010;-74
2023/03/06 20:57:02;;;;;;;33.33;14.40;;;3.60;90.60;;;;;;7584343;19;20541;-75
2023/03/06 20:59:34;;;;;;;32.55;16.00;;;3.60;90.80;;;;;;7559612;19;20490;-75
2023/03/06 21:02:09;;;;;;;31.85;13.75;;;3.50;90.80;;;;;;7562519;19;20014;-75
2023/03/06 21:04:41;;;;;;;30.23;13.82;;;3.60;90.70;;;;;;7555908;19;20017;-74
2023/03/06 21:07:15;;;;;;;37.67;15.45;;;3.50;90.80;;;;;;7604450;19;20025;-74
2023/03/06 21:09:48;;;;;;;36.13;16.30;;;3.50;90.90;;;;;;7604499;19;20022;-74
2023/03/06 21:12:20;;;;;;;30.70;15.27;;;3.50;91.10;;;;;;7592747;19;20026;-74
2023/03/06 21:14:52;;;;;;;35.47;15.80;;;3.40;91.40;;;;;;7595830;19;20023;-74
2023/03/06 21:17:26;;;;;;;31.03;15.33;;;3.50;91.50;;;;;;7593078;19;20022;-74
2023/03/06 21:19:58;;;;;;;33.92;15.10;;;3.50;91.50;;;;;;7608481;19;20859;-74
2023/03/06 21:22:30;;;;;;;28.73;13.40;;;3.40;91.60;;;;;;7587201;19;20878;-76
2023/03/06 21:25:02;;;;;;;33.25;14.63;;;3.40;91.80;;;;;;7599199;19;20026;-75
2023/03/06 21:27:35;;;;;;;30.92;14.18;;;3.40;91.90;;;;;;7599047;19;20068;-76
2023/03/06 21:30:08;;;;;;;29.73;14.60;;;3.40;91.90;;;;;;7607901;19;20081;-76
2023/03/06 21:32:40;;;;;;;31.75;13.98;;;3.40;91.80;;;;;;7601565;19;20066;-76
2023/03/06 21:35:12;;;;;;;33.50;15.63;;;3.40;91.90;;;;;;7593157;19;20029;-76
2023/03/06 21:37:45;;;;;;;29.77;14.38;;;3.40;91.90;;;;;;7600919;19;20025;-75
2023/03/06 21:40:18;;;;;;;34.92;15.15;;;3.40;91.80;;;;;;7603485;19;20034;-75
2023/03/06 21:42:50;;;;;;;34.25;16.52;;;3.40;91.90;;;;;;7593121;19;20015;-73
2023/03/06 21:45:23;;;;;;;29.90;14.77;;;3.40;91.90;;;;;;7596369;19;20889;-75
2023/03/06 21:47:59;;;;;;;35.22;14.25;;;3.40;92.00;;;;;;7607320;19;20015;-76
2023/03/06 21:50:31;;;;;;;37.08;15.82;;;3.40;92.00;;;;;;7596288;19;20014;-75
2023/03/06 21:53:04;;;;;;;39.00;16.48;;;3.30;92.20;;;;;;7604893;19;20030;-75
2023/03/06 21:55:39;;;;;;;35.22;15.57;;;3.40;92.30;;;;;;7593090;19;20022;-75
2023/03/06 21:58:14;;;;;;;34.85;16.15;;;3.40;92.40;;;;;;7592841;19;20022;-78
2023/03/06 22:00:46;;;;;;;39.45;15.63;;;3.40;92.40;;;;;;7599009;19;20093;-76
2023/03/06 22:03:19;;;;;;;41.95;17.17;;;3.40;92.10;;;;;;7596646;19;20037;-74
2023/03/06 22:05:52;;;;;;;31.77;14.32;;;3.40;92.50;;;;;;7583316;19;20699;-74
2023/03/06 22:08:24;;;;;;;31.73;12.68;;;3.40;92.50;;;;;;7582408;19;20119;-74
2023/03/06 22:10:56;;;;;;;33.95;15.43;;;3.40;92.60;;;;;;7604608;19;21457;-74
2023/03/06 22:13:28;;;;;;;35.53;15.75;;;3.40;92.60;;;;;;7593680;19;20683;-74
2023/03/06 22:16:00;;;;;;;34.10;15.05;;;3.40;92.80;;;;;;7592909;19;20018;-74
2023/03/06 22:18:33;;;;;;;30.45;15.43;;;3.30;93.00;;;;;;7608890;19;20655;-74
2023/03/06 22:21:09;;;;;;;31.63;15.18;;;3.40;93.00;;;;;;7595031;19;20106;-76
2023/03/06 22:23:42;;;;;;;34.50;16.17;;;3.30;93.10;;;;;;7597836;19;20010;-74
2023/03/06 22:26:14;;;;;;;36.15;14.77;;;3.30;93.30;;;;;;7604509;19;20015;-74
2023/03/06 22:28:47;;;;;;;36.65;16.27;;;3.30;93.20;;;;;;7591078;19;20056;-74
2023/03/06 22:31:25;;;;;;;29.65;13.80;;;3.40;93.10;;;;;;7584039;19;20018;-75
2023/03/06 22:34:00;;;;;;;33.75;16.55;;;3.30;93.30;;;;;;7593014;19;20074;-76
2023/03/06 22:36:32;;;;;;;34.63;15.40;;;3.30;93.10;;;;;;7587199;19;20560;-75
2023/03/06 22:39:04;;;;;;;35.67;16.58;;;3.30;93.50;;;;;;7603974;19;21039;-75
2023/03/06 22:41:37;;;;;;;34.28;16.20;;;3.40;93.10;;;;;;7587414;19;20029;-77
2023/03/06 22:44:17;;;;;;;36.42;15.65;;;3.40;93.20;;;;;;7595112;19;20099;-78
2023/03/06 22:46:50;;;;;;;30.38;15.20;;;3.40;93.10;;;;;;7598018;19;20904;-77
2023/03/06 22:49:23;;;;;;;30.90;14.75;;;3.40;92.90;;;;;;7592044;19;21682;-76
2023/03/06 22:51:55;;;;;;;38.42;16.35;;;3.40;93.10;;;;;;7590838;19;20022;-77
2023/03/06 22:54:27;;;;;;;32.20;15.40;;;3.40;92.90;;;;;;7592589;19;20018;-77
2023/03/06 22:57:00;;;;;;;31.65;15.02;;;3.40;92.90;;;;;;7564742;19;20511;-75
2023/03/06 22:59:32;;;;;;;32.78;14.07;;;3.40;93.10;;;;;;7570990;19;20354;-75
2023/03/06 23:02:04;;;;;;;29.85;15.55;;;3.40;93.00;;;;;;7585058;19;20024;-75
2023/03/06 23:04:36;;;;;;;37.38;16.13;;;3.40;93.10;;;;;;7591105;19;20970;-74
2023/03/06 23:07:09;;;;;;;38.55;17.67;;;3.40;93.10;;;;;;7591243;19;20015;-75
2023/03/06 23:09:42;;;;;;;36.55;15.93;;;3.30;93.00;;;;;;7601920;19;20014;-75
2023/03/06 23:12:33;;;;;;;34.55;15.48;;;3.40;93.10;;;;;;7601291;19;20633;-74
2023/03/06 23:15:24;;;;;;;38.88;14.93;;;3.40;93.20;;;;;;7608832;19;20010;-74
2023/03/06 23:18:14;;;;;;;32.75;16.60;;;3.40;93.20;;;;;;7588644;19;20014;-74
2023/03/06 23:21:11;;;;;;;31.33;15.38;;;3.40;93.40;;;;;;7609359;19;20450;-75
2023/03/06 23:24:04;;;;;;;37.75;16.58;;;3.30;94.10;;;;;;7598639;19;20029;-77
2023/03/06 23:26:36;;;;;;;31.10;15.55;;;3.30;94.40;;;;;;7565522;19;20022;-77
2023/03/06 23:29:08;;;;;;;33.05;16.30;;;3.30;94.50;;;;;;7562538;19;20033;-78
2023/03/06 23:31:41;;;;;;;35.33;15.57;;;3.20;94.80;;;;;;7580509;19;20053;-77
2023/03/06 23:34:13;;;;;;;29.98;15.73;;;3.30;94.60;;;;;;7584329;19;20022;-78
2023/03/06 23:36:45;;;;;;;34.40;15.63;;;3.30;94.40;;;;;;7593584;19;20064;-77
2023/03/06 23:39:17;;;;;;;33.85;15.60;;;3.30;94.30;;;;;;7603599;19;20010;-77
2023/03/06 23:41:50;;;;;;;36.22;14.75;;;3.30;94.40;;;;;;7594562;19;20682;-77
2023/03/06 23:44:23;;;;;;;36.27;16.30;;;3.30;94.50;;;;;;7595202;19;20018;-77
2023/03/06 23:46:55;;;;;;;43.20;17.38;;;3.30;94.80;;;;;;7570306;19;20019;-76
2023/03/06 23:49:27;;;;;;;42.85;17.25;;;3.30;94.60;;;;;;7585078;19;20014;-77
2023/03/06 23:51:59;;;;;;;34.45;16.85;;;3.30;94.90;;;;;;7605063;19;20018;-74
2023/03/06 23:54:33;;;;;;;31.45;15.43;;;3.30;95.10;;;;;;7607583;19;21072;-75
2023/03/06 23:57:05;;;;;;;38.22;16.52;;;3.30;95.10;;;;;;7605711;19;20022;-75
2023/03/06 23:59:37;;;;;;;35.93;17.07;;;3.30;95.10;;;;;;7582857;19;20085;-75
